Etusivu
METAR-TAF:

METAR-TAF

Lentoasemat :

Rabat, Marokko

Leveyspiiri: 34-03N, Pituuspiiri: 006-46W, korkeus merenpinnasta: 84 m

Tämänhetkinen sää

Tämä raportti tehtiin 30 minuuttia sitten, kello 09.30 UTC
Tuuli 9 kn idästä, vaihdellen pohjoisen/koillisen ja etelän välillä
Lämpötila 16°C
Kosteus 42%
Ilmanpaine 1017 hPa
Näkyvyys 10 km tai enemmän
ei pilviä alle 1500 m:ssä eikä cumulonimbus-pilviä

METAR: GMME 220930Z 09009KT 030V170 CAVOK 16/03 Q1017 NOSIG

Aika: 10:00 (10:00 UTC)

Sääennuste

Tämä raportti tehtiin 5 tuntia ja 0 minuuttia sitten, kello 05.00 UTC
Ennuste voimassa 22. päivästä klo 06 UTC - 23. päivään klo 12 UTC
Tuuli 14 kn idästä/koillisesta puuskistuen 24 kn:hen
Näkyvyys: 8000 m

TAF: GMME 220500Z 2206/2312 06014G24KT 8000 NSC

Säähavainnot ja -ennusteet yli 4000 lentoasemalta (METAR- ja TAF-raportit).

Käytössä olevat sääasemat on merkitty karttaan keltaisilla ja punaisilla pisteillä.

Aseta hiiri pisteen päälle nähdäksesi sääaseman nimen.

Klikkaa sitten nähdäksesi säähavainnot ja -ennusteet.

Kartan vaihtaminen: klikkaa mustalla rastilla varustettuja vihreitä pisteitä, niin voit zoomata sisään; viivalla varustettua vihreää pistettä, niin voit zoomata ulos tai vihreitä nuolia, niin pääset viereisille kartoille.


METAR-TAF: